Time;durP1;ratioP1;P1;durP2;ratioP2;P2;SDS_P1;SDS_P2;PMS_P1;PMS_P2;Temp;Humidity;BMP_temperature;BMP_pressure;BME280_temperature;BME280_humidity;BME280_pressure;Samples;Min_cycle;Max_cycle;Signal;HPM_P1;HPM_P2
2022/11/12 00:02:12;;;;;;;;;;;2.40;99.90;;;;;;5054440;28;19920;-74
2022/11/12 00:04:37;;;;;;;;;;;2.40;99.90;;;;;;5056282;28;19916;-74
2022/11/12 00:07:03;;;;;;;;;;;2.40;99.90;;;;;;5055598;28;19920;-73
2022/11/12 00:09:29;;;;;;;;;;;2.40;99.90;;;;;;5055934;28;19931;-73
2022/11/12 00:11:54;;;;;;;;;;;2.40;99.90;;;;;;5055557;28;19913;-73
2022/11/12 00:14:20;;;;;;;;;;;2.40;99.90;;;;;;5055797;28;19956;-73
2022/11/12 00:16:45;;;;;;;;;;;2.40;99.90;;;;;;5055983;28;20023;-74
2022/11/12 00:19:11;;;;;;;;;;;2.40;99.90;;;;;;5055727;28;19956;-74
2022/11/12 00:21:36;;;;;;;;;;;2.40;99.90;;;;;;5054047;28;19913;-73
2022/11/12 00:24:02;;;;;;;;;;;2.50;99.90;;;;;;5055584;28;19920;-74
2022/11/12 00:26:27;;;;;;;;;;;2.50;99.90;;;;;;5055502;28;19985;-74
2022/11/12 00:28:54;;;;;;;;;;;2.50;99.90;;;;;;5055869;28;20365;-74
2022/11/12 00:31:19;;;;;;;;;;;2.50;99.90;;;;;;5055183;28;20400;-74
2022/11/12 00:33:45;;;;;;;;;;;2.50;99.90;;;;;;5055147;28;19979;-74
2022/11/12 00:36:10;;;;;;;;;;;2.50;99.90;;;;;;5055244;28;19917;-73
2022/11/12 00:38:36;;;;;;;;;;;2.50;99.90;;;;;;5055024;28;20373;-73
2022/11/12 00:41:02;;;;;;;;;;;2.50;99.90;;;;;;5036993;28;20373;-74
2022/11/12 00:43:27;;;;;;;;;;;2.50;99.90;;;;;;5054950;28;19913;-74
2022/11/12 00:45:53;;;;;;;;;;;2.50;99.90;;;;;;5055416;28;19913;-74
2022/11/12 00:48:18;;;;;;;;;;;2.50;99.90;;;;;;5055137;28;20357;-74
2022/11/12 00:50:44;;;;;;;;;;;2.50;99.90;;;;;;5054790;28;19913;-74
2022/11/12 00:53:09;;;;;;;;;;;2.40;99.90;;;;;;5054754;28;19917;-74
2022/11/12 00:55:35;;;;;;;;;;;2.40;99.90;;;;;;5053304;28;19916;-74
2022/11/12 00:58:00;;;;;;;;;;;2.40;99.90;;;;;;5054971;28;20312;-73
2022/11/12 01:00:26;;;;;;;;;;;2.30;99.90;;;;;;5052653;28;19999;-73
2022/11/12 01:02:52;;;;;;;;;;;2.30;99.90;;;;;;5054559;28;19908;-73
2022/11/12 01:05:18;;;;;;;;;;;2.30;99.90;;;;;;5054507;28;19920;-74
2022/11/12 01:07:44;;;;;;;;;;;2.20;99.90;;;;;;5054477;28;20425;-73
2022/11/12 01:10:10;;;;;;;;;;;2.30;99.90;;;;;;5054459;28;19944;-74
2022/11/12 01:12:35;;;;;;;;;;;2.30;99.90;;;;;;5054679;28;19923;-74
2022/11/12 01:15:01;;;;;;;;;;;2.30;99.90;;;;;;5054229;28;19995;-73
2022/11/12 01:17:27;;;;;;;;;;;2.30;99.90;;;;;;5054281;28;20429;-74
2022/11/12 01:19:53;;;;;;;;;;;2.30;99.90;;;;;;5054301;28;19940;-74
2022/11/12 01:22:18;;;;;;;;;;;2.30;99.90;;;;;;5054185;28;20008;-74
2022/11/12 01:24:44;;;;;;;;;;;2.30;99.90;;;;;;5054160;28;20258;-74
2022/11/12 01:27:09;;;;;;;;;;;2.20;99.90;;;;;;5054434;28;20003;-74
2022/11/12 01:29:35;;;;;;;;;;;2.20;99.90;;;;;;5054647;28;19917;-74
2022/11/12 01:32:00;;;;;;;;;;;2.20;99.90;;;;;;5054046;28;20317;-74
2022/11/12 01:34:26;;;;;;;;;;;2.20;99.90;;;;;;5054239;28;20403;-74
2022/11/12 01:36:52;;;;;;;;;;;2.20;99.90;;;;;;5054263;28;19909;-74
2022/11/12 01:39:17;;;;;;;;;;;2.10;99.90;;;;;;5054269;28;19909;-74
2022/11/12 01:41:43;;;;;;;;;;;2.10;99.90;;;;;;5053967;28;19932;-74
2022/11/12 01:44:09;;;;;;;;;;;2.10;99.90;;;;;;5053892;28;19919;-74
2022/11/12 01:46:38;;;;;;;;;;;2.10;99.90;;;;;;5053802;28;19913;-73
2022/11/12 01:49:05;;;;;;;;;;;2.10;99.90;;;;;;5054117;28;19909;-74
2022/11/12 01:51:33;;;;;;;;;;;2.10;99.90;;;;;;5053725;28;19975;-74
2022/11/12 01:54:01;;;;;;;;;;;2.00;99.90;;;;;;5054016;28;20346;-74
2022/11/12 01:56:27;;;;;;;;;;;2.10;99.90;;;;;;5053819;28;19967;-73
2022/11/12 01:58:55;;;;;;;;;;;2.00;99.90;;;;;;5054275;28;19935;-73
2022/11/12 02:01:21;;;;;;;;;;;2.00;99.90;;;;;;5053893;28;19909;-73
2022/11/12 02:03:46;;;;;;;;;;;2.00;99.90;;;;;;5054159;28;19909;-73
2022/11/12 02:06:13;;;;;;;;;;;2.00;99.90;;;;;;5053546;28;20344;-74
2022/11/12 02:08:39;;;;;;;;;;;2.00;99.90;;;;;;5053544;28;19913;-73
2022/11/12 02:11:17;;;;;;;;;;;2.00;99.90;;;;;;5053390;28;20475;-74
2022/11/12 02:14:00;;;;;;;;;;;2.00;99.90;;;;;;5053475;28;19913;-73
2022/11/12 02:16:33;;;;;;;;;;;2.00;99.90;;;;;;5053448;28;19921;-73
2022/11/12 02:18:59;;;;;;;;;;;2.00;99.90;;;;;;5053438;28;19913;-73
2022/11/12 02:21:24;;;;;;;;;;;1.90;99.90;;;;;;5053367;28;19924;-73
2022/11/12 02:24:00;;;;;;;;;;;1.90;99.90;;;;;;5053385;28;20380;-73
2022/11/12 02:26:28;;;;;;;;;;;1.90;99.90;;;;;;5053402;28;20000;-73
2022/11/12 02:28:53;;;;;;;;;;;1.80;99.90;;;;;;5052173;28;19912;-73
2022/11/12 02:31:19;;;;;;;;;;;1.80;99.90;;;;;;5053659;28;20015;-73
2022/11/12 02:33:44;;;;;;;;;;;1.70;99.90;;;;;;5053290;28;19948;-73
2022/11/12 02:36:10;;;;;;;;;;;1.70;99.90;;;;;;5053199;28;19913;-73
2022/11/12 02:38:36;;;;;;;;;;;1.70;99.90;;;;;;5053248;28;20394;-73
2022/11/12 02:41:01;;;;;;;;;;;1.70;99.90;;;;;;5053458;28;19913;-73
2022/11/12 02:43:27;;;;;;;;;;;1.60;99.90;;;;;;5053202;28;19928;-73
2022/11/12 02:45:52;;;;;;;;;;;1.70;99.90;;;;;;5053133;28;19920;-73
2022/11/12 02:48:18;;;;;;;;;;;1.60;99.90;;;;;;5053673;28;20357;-73
2022/11/12 02:50:43;;;;;;;;;;;1.60;99.90;;;;;;5053661;28;20264;-73
2022/11/12 02:53:09;;;;;;;;;;;1.70;99.90;;;;;;5053609;28;20440;-73
2022/11/12 02:55:34;;;;;;;;;;;1.70;99.90;;;;;;5052957;28;20300;-73
2022/11/12 02:58:00;;;;;;;;;;;1.70;99.90;;;;;;5052114;28;20376;-73
2022/11/12 03:00:25;;;;;;;;;;;1.60;99.90;;;;;;5051746;28;19948;-73
2022/11/12 03:03:00;;;;;;;;;;;1.60;99.90;;;;;;5053280;28;19912;-73
2022/11/12 03:05:30;;;;;;;;;;;1.60;99.90;;;;;;5051669;28;19954;-73
2022/11/12 03:08:00;;;;;;;;;;;1.60;99.90;;;;;;5052921;28;20428;-73
2022/11/12 03:10:26;;;;;;;;;;;1.60;99.90;;;;;;5053462;28;19909;-74
2022/11/12 03:12:52;;;;;;;;;;;1.60;99.90;;;;;;5053158;28;19908;-73
2022/11/12 03:15:18;;;;;;;;;;;1.60;99.90;;;;;;5052726;28;19917;-73
2022/11/12 03:17:44;;;;;;;;;;;1.60;99.90;;;;;;5052900;28;20331;-73
2022/11/12 03:20:10;;;;;;;;;;;1.60;99.90;;;;;;5053111;28;19913;-73
2022/11/12 03:22:36;;;;;;;;;;;1.50;99.90;;;;;;5053830;28;20292;-73
2022/11/12 03:25:02;;;;;;;;;;;1.50;99.90;;;;;;5055071;28;19909;-73
2022/11/12 03:27:28;;;;;;;;;;;1.40;99.90;;;;;;5056384;28;19995;-73
2022/11/12 03:29:54;;;;;;;;;;;1.40;99.90;;;;;;5055500;28;19967;-73
2022/11/12 03:32:19;;;;;;;;;;;1.40;99.90;;;;;;5056343;28;19943;-73
2022/11/12 03:34:45;;;;;;;;;;;1.40;99.90;;;;;;5056208;28;19919;-73
2022/11/12 03:37:10;;;;;;;;;;;1.40;99.90;;;;;;5056241;28;20373;-73
2022/11/12 03:39:36;;;;;;;;;;;1.40;99.90;;;;;;5056211;28;20257;-73
2022/11/12 03:42:01;;;;;;;;;;;1.30;99.90;;;;;;5056100;28;20372;-73
2022/11/12 03:44:27;;;;;;;;;;;1.30;99.90;;;;;;5056126;28;20426;-73
2022/11/12 03:46:53;;;;;;;;;;;1.30;99.90;;;;;;5056028;28;19939;-73
2022/11/12 03:49:18;;;;;;;;;;;1.30;99.90;;;;;;5056028;28;19916;-73
2022/11/12 03:51:44;;;;;;;;;;;1.30;99.90;;;;;;5056229;28;19963;-73
2022/11/12 03:54:09;;;;;;;;;;;1.30;99.90;;;;;;5055908;28;19917;-73
2022/11/12 03:56:35;;;;;;;;;;;1.30;99.90;;;;;;5055962;28;19924;-73
2022/11/12 03:59:00;;;;;;;;;;;1.30;99.90;;;;;;5056357;28;19918;-72
2022/11/12 04:01:26;;;;;;;;;;;1.30;99.90;;;;;;5056109;28;20011;-73
2022/11/12 04:03:51;;;;;;;;;;;1.30;99.90;;;;;;5056035;28;20411;-73
2022/11/12 04:09:01;;;;;;;;;;;1.40;99.90;;;;;;5055983;28;19959;-73
2022/11/12 04:11:27;;;;;;;;;;;1.30;99.90;;;;;;5055601;28;19916;-73
2022/11/12 04:13:53;;;;;;;;;;;1.30;99.90;;;;;;5055610;28;19948;-72
2022/11/12 04:21:49;;;;;;;;;;;1.30;99.90;;;;;;5055978;28;19935;-73
2022/11/12 04:27:04;;;;;;;;;;;1.20;99.90;;;;;;5055832;28;19916;-73
2022/11/12 04:32:14;;;;;;;;;;;1.20;99.90;;;;;;5055762;28;19915;-72
2022/11/12 04:34:40;;;;;;;;;;;1.10;99.90;;;;;;5055103;28;20285;-73
2022/11/12 04:37:05;;;;;;;;;;;1.10;99.90;;;;;;5055312;28;19962;-73
2022/11/12 04:39:31;;;;;;;;;;;1.10;99.90;;;;;;5055029;28;19959;-73
2022/11/12 04:47:29;;;;;;;;;;;1.10;99.90;;;;;;5055468;28;19963;-73
2022/11/12 04:49:55;;;;;;;;;;;1.10;99.90;;;;;;5054846;28;19908;-73
2022/11/12 04:52:20;;;;;;;;;;;1.10;99.90;;;;;;5054790;28;20361;-73
2022/11/12 04:54:46;;;;;;;;;;;1.10;99.90;;;;;;5054880;28;19912;-73
2022/11/12 04:57:11;;;;;;;;;;;1.00;99.90;;;;;;5055272;28;19905;-73
2022/11/12 04:59:37;;;;;;;;;;;1.10;99.90;;;;;;5054650;28;19912;-72
2022/11/12 05:02:03;;;;;;;;;;;1.10;99.90;;;;;;5054569;28;19959;-72
2022/11/12 05:04:28;;;;;;;;;;;1.10;99.90;;;;;;5054812;28;19919;-72
2022/11/12 05:06:57;;;;;;;;;;;1.00;99.90;;;;;;5054941;28;19948;-70
2022/11/12 05:09:24;;;;;;;;;;;1.10;99.90;;;;;;5054509;28;19913;-69
2022/11/12 05:11:50;;;;;;;;;;;1.10;99.90;;;;;;5054328;28;19913;-70
2022/11/12 05:14:16;;;;;;;;;;;1.00;99.90;;;;;;5054160;28;20288;-70
2022/11/12 05:16:42;;;;;;;;;;;1.00;99.90;;;;;;5054453;28;19928;-70
2022/11/12 05:19:08;;;;;;;;;;;1.00;99.90;;;;;;5054313;28;19909;-70
2022/11/12 05:24:17;;;;;;;;;;;1.00;99.90;;;;;;5054560;28;20292;-70
2022/11/12 05:26:43;;;;;;;;;;;1.00;99.90;;;;;;5054631;28;19913;-70
2022/11/12 05:29:08;;;;;;;;;;;1.00;99.90;;;;;;5052860;28;20017;-71
2022/11/12 05:31:34;;;;;;;;;;;1.00;99.90;;;;;;5054086;28;19920;-70
2022/11/12 05:34:00;;;;;;;;;;;1.00;99.90;;;;;;5053998;28;19917;-70
2022/11/12 05:36:25;;;;;;;;;;;1.00;99.90;;;;;;5053974;28;19967;-70
2022/11/12 05:38:51;;;;;;;;;;;1.00;99.90;;;;;;5053972;28;19939;-71
2022/11/12 05:41:17;;;;;;;;;;;1.10;99.90;;;;;;5053835;28;19940;-71
2022/11/12 05:43:42;;;;;;;;;;;1.10;99.90;;;;;;5054120;28;19916;-71
2022/11/12 05:46:08;;;;;;;;;;;1.10;99.90;;;;;;5053575;28;19912;-70
2022/11/12 05:48:33;;;;;;;;;;;1.00;99.90;;;;;;5054077;28;19995;-70
2022/11/12 05:50:59;;;;;;;;;;;1.00;99.90;;;;;;5054303;28;19975;-71
2022/11/12 05:53:25;;;;;;;;;;;1.00;99.90;;;;;;5052448;28;19912;-71
2022/11/12 05:55:50;;;;;;;;;;;1.00;99.90;;;;;;5052268;28;19951;-71
2022/11/12 05:58:16;;;;;;;;;;;1.00;99.90;;;;;;5053636;28;20273;-70
2022/11/12 06:00:41;;;;;;;;;;;1.00;99.90;;;;;;5053827;28;20050;-70
2022/11/12 06:03:08;;;;;;;;;;;1.00;99.90;;;;;;5053612;28;19932;-70
2022/11/12 06:05:33;;;;;;;;;;;1.00;99.90;;;;;;5052549;28;20369;-70
2022/11/12 06:07:59;;;;;;;;;;;1.00;99.90;;;;;;5053737;28;19913;-69
2022/11/12 06:10:25;;;;;;;;;;;1.00;99.90;;;;;;5053728;28;20357;-70
2022/11/12 06:12:51;;;;;;;;;;;1.00;99.90;;;;;;5069785;28;19938;-70
2022/11/12 06:15:16;;;;;;;;;;;1.00;99.90;;;;;;5072733;28;20364;-70
2022/11/12 06:17:42;;;;;;;;;;;1.00;99.90;;;;;;5072518;28;19915;-70
2022/11/12 06:20:08;;;;;;;;;;;1.00;99.90;;;;;;5073060;28;20387;-70
2022/11/12 06:22:33;;;;;;;;;;;1.00;99.90;;;;;;5054112;28;19958;-71
2022/11/12 06:24:59;;;;;;;;;;;1.00;99.90;;;;;;5073015;28;20456;-70
2022/11/12 06:27:25;;;;;;;;;;;1.00;99.90;;;;;;5072779;28;19916;-70
2022/11/12 06:29:50;;;;;;;;;;;0.90;99.90;;;;;;5071899;28;19934;-70
2022/11/12 06:32:16;;;;;;;;;;;0.90;99.90;;;;;;5072748;28;19919;-70
2022/11/12 06:34:41;;;;;;;;;;;0.80;99.90;;;;;;5071647;28;19912;-70
2022/11/12 06:37:07;;;;;;;;;;;0.80;99.90;;;;;;5072624;28;20414;-70
2022/11/12 06:39:32;;;;;;;;;;;0.80;99.90;;;;;;5071692;28;19983;-70
2022/11/12 06:41:58;;;;;;;;;;;0.80;99.90;;;;;;5072712;28;19913;-70
2022/11/12 06:44:24;;;;;;;;;;;0.80;99.90;;;;;;5071683;28;19912;-71
2022/11/12 06:46:49;;;;;;;;;;;0.90;99.90;;;;;;5071158;28;19916;-70
2022/11/12 06:49:15;;;;;;;;;;;0.90;99.90;;;;;;5072633;28;19909;-70
2022/11/12 06:51:40;;;;;;;;;;;0.90;99.90;;;;;;5071614;28;19913;-70
2022/11/12 06:54:06;;;;;;;;;;;0.90;99.90;;;;;;5072562;28;19948;-70
2022/11/12 06:56:32;;;;;;;;;;;0.90;99.90;;;;;;5071412;28;20333;-69
2022/11/12 06:58:57;;;;;;;;;;;0.90;99.90;;;;;;5075721;28;19909;-70
2022/11/12 07:01:23;;;;;;;;;;;0.90;99.90;;;;;;5074031;28;19919;-69
2022/11/12 07:03:52;;;;;;;;;;;0.90;99.90;;;;;;5074931;28;19965;-70
2022/11/12 07:06:19;;;;;;;;;;;0.90;99.90;;;;;;5074169;28;20388;-71
2022/11/12 07:08:45;;;;;;;;;;;0.90;99.90;;;;;;5076078;28;19995;-70
2022/11/12 07:11:11;;;;;;;;;;;1.00;99.90;;;;;;5075514;28;20338;-70
2022/11/12 07:13:36;;;;;;;;;;;1.00;99.90;;;;;;5074775;28;19948;-70
2022/11/12 07:16:03;;;;;;;;;;;1.00;99.90;;;;;;5055496;28;19921;-70
2022/11/12 07:18:29;;;;;;;;;;;1.00;99.90;;;;;;5068683;28;19908;-70
2022/11/12 07:21:02;;;;;;;;;;;1.00;99.90;;;;;;5076002;28;20352;-70
2022/11/12 07:23:29;;;;;;;;;;;1.10;99.90;;;;;;5076063;28;19991;-71
2022/11/12 07:26:04;;;;;;;;;;;1.10;99.90;;;;;;5075216;28;19970;-69
2022/11/12 07:28:30;;;;;;;;;;;1.10;99.90;;;;;;5076458;28;19955;-70
2022/11/12 07:30:57;;;;;;;;;;;1.10;99.90;;;;;;5076433;28;20268;-70
2022/11/12 07:33:23;;;;;;;;;;;1.20;99.90;;;;;;5075063;28;19908;-70
2022/11/12 07:35:54;;;;;;;;;;;1.20;99.90;;;;;;5076175;28;19943;-70
2022/11/12 07:38:20;;;;;;;;;;;1.20;99.90;;;;;;5076576;28;20315;-70
2022/11/12 07:40:46;;;;;;;;;;;1.20;99.90;;;;;;5076253;28;19962;-70
2022/11/12 07:43:11;;;;;;;;;;;1.30;99.90;;;;;;5075262;28;19913;-70
2022/11/12 07:45:37;;;;;;;;;;;1.30;99.90;;;;;;5076256;28;19991;-70
2022/11/12 07:48:02;;;;;;;;;;;1.30;99.90;;;;;;5076155;28;19913;-70
2022/11/12 07:50:28;;;;;;;;;;;1.30;99.90;;;;;;5076301;28;20377;-70
2022/11/12 07:52:56;;;;;;;;;;;1.40;99.90;;;;;;5076297;28;19912;-70
2022/11/12 07:55:22;;;;;;;;;;;1.40;99.90;;;;;;5075807;28;19999;-70
2022/11/12 07:57:47;;;;;;;;;;;1.50;99.90;;;;;;5076174;28;19948;-70
2022/11/12 08:00:14;;;;;;;;;;;1.50;99.90;;;;;;5074610;28;19920;-70
2022/11/12 08:02:40;;;;;;;;;;;1.60;99.90;;;;;;5074814;28;19916;-70
2022/11/12 08:05:05;;;;;;;;;;;1.60;99.90;;;;;;5075737;28;19919;-70
2022/11/12 08:07:31;;;;;;;;;;;1.70;99.90;;;;;;5075689;28;19913;-70
2022/11/12 08:09:57;;;;;;;;;;;1.70;99.90;;;;;;5075561;28;19912;-70
2022/11/12 08:12:23;;;;;;;;;;;1.80;99.90;;;;;;5075851;28;19912;-70
2022/11/12 08:14:48;;;;;;;;;;;1.80;99.90;;;;;;5075391;28;19999;-70
2022/11/12 08:17:14;;;;;;;;;;;1.90;99.90;;;;;;5075458;28;20323;-70
2022/11/12 08:19:40;;;;;;;;;;;2.00;99.90;;;;;;5075781;28;19974;-70
2022/11/12 08:22:05;;;;;;;;;;;2.00;99.90;;;;;;5075369;28;19938;-70
2022/11/12 08:24:31;;;;;;;;;;;2.10;99.90;;;;;;5075324;28;19995;-70
2022/11/12 08:26:56;;;;;;;;;;;2.10;99.90;;;;;;5057323;28;20383;-71
2022/11/12 08:29:22;;;;;;;;;;;2.20;99.90;;;;;;5075322;28;20269;-70
2022/11/12 08:31:47;;;;;;;;;;;2.30;99.90;;;;;;5075206;28;20279;-70
2022/11/12 08:34:13;;;;;;;;;;;2.30;99.90;;;;;;5074136;28;19912;-70
2022/11/12 08:36:39;;;;;;;;;;;2.40;99.90;;;;;;5073598;28;20019;-71
2022/11/12 08:39:06;;;;;;;;;;;2.50;99.90;;;;;;5075429;28;20000;-71
2022/11/12 08:41:32;;;;;;;;;;;2.50;99.90;;;;;;5075277;28;19954;-71
2022/11/12 08:43:57;;;;;;;;;;;2.50;99.90;;;;;;5075601;28;19916;-71
2022/11/12 08:46:23;;;;;;;;;;;2.60;99.90;;;;;;5074950;28;19912;-71
2022/11/12 08:48:48;;;;;;;;;;;2.70;99.90;;;;;;5074839;28;19914;-71
2022/11/12 08:51:14;;;;;;;;;;;2.70;99.90;;;;;;5074818;28;20007;-70
2022/11/12 08:53:40;;;;;;;;;;;2.80;99.90;;;;;;5074778;28;19913;-71
2022/11/12 08:56:06;;;;;;;;;;;2.80;99.90;;;;;;5074898;28;19916;-71
2022/11/12 08:58:31;;;;;;;;;;;2.90;99.90;;;;;;5073381;28;19909;-71
2022/11/12 09:01:02;;;;;;;;;;;3.00;99.90;;;;;;5074683;28;19912;-72
2022/11/12 09:03:28;;;;;;;;;;;3.00;99.90;;;;;;5074971;28;19909;-72
2022/11/12 09:05:53;;;;;;;;;;;3.10;99.90;;;;;;5075011;28;19913;-72
2022/11/12 09:08:20;;;;;;;;;;;3.20;99.90;;;;;;5074430;28;19996;-72
2022/11/12 09:10:46;;;;;;;;;;;3.30;99.90;;;;;;5074701;28;19909;-72
2022/11/12 09:13:13;;;;;;;;;;;3.30;99.90;;;;;;5074367;28;19908;-72
2022/11/12 09:15:38;;;;;;;;;;;3.50;99.90;;;;;;5074211;28;20009;-73
2022/11/12 09:18:05;;;;;;;;;;;3.50;99.90;;;;;;5073933;28;19909;-73
2022/11/12 09:20:31;;;;;;;;;;;3.60;99.90;;;;;;5073836;28;19940;-73
2022/11/12 09:22:58;;;;;;;;;;;3.60;99.90;;;;;;5074290;28;19916;-73
2022/11/12 09:25:23;;;;;;;;;;;3.80;99.90;;;;;;5074265;28;19953;-73
2022/11/12 09:27:49;;;;;;;;;;;3.80;99.90;;;;;;5074496;28;19919;-73
2022/11/12 09:30:14;;;;;;;;;;;3.90;99.90;;;;;;5074174;28;19940;-74
2022/11/12 09:32:40;;;;;;;;;;;4.00;99.90;;;;;;5072811;28;19913;-74
2022/11/12 09:35:06;;;;;;;;;;;4.10;99.90;;;;;;5074259;28;19917;-74
2022/11/12 09:37:31;;;;;;;;;;;4.20;99.90;;;;;;5074877;28;19962;-74
2022/11/12 09:39:57;;;;;;;;;;;4.20;99.90;;;;;;5074020;28;19931;-73
2022/11/12 09:42:23;;;;;;;;;;;4.30;99.90;;;;;;5072713;28;19919;-74
2022/11/12 09:44:56;;;;;;;;;;;4.40;99.90;;;;;;5074044;28;20387;-74
2022/11/12 09:47:37;;;;;;;;;;;4.50;99.90;;;;;;5074441;28;20348;-74
2022/11/12 09:50:21;;;;;;;;;;;4.60;99.90;;;;;;5073821;28;20007;-74
2022/11/12 09:52:49;;;;;;;;;;;4.70;99.90;;;;;;5073841;28;19913;-74
2022/11/12 09:55:21;;;;;;;;;;;4.80;99.90;;;;;;5073679;28;20265;-74
2022/11/12 09:57:46;;;;;;;;;;;4.90;99.90;;;;;;5073699;28;19916;-73
2022/11/12 10:00:16;;;;;;;;;;;5.00;99.90;;;;;;5074065;28;19912;-73
2022/11/12 10:02:47;;;;;;;;;;;5.00;99.90;;;;;;5073919;28;20398;-74
2022/11/12 10:05:32;;;;;;;;;;;5.10;99.90;;;;;;5072321;28;20263;-74
2022/11/12 10:08:05;;;;;;;;;;;5.20;99.90;;;;;;5073531;28;19915;-74
2022/11/12 10:10:31;;;;;;;;;;;5.30;99.90;;;;;;5073876;28;20268;-74
2022/11/12 10:13:07;;;;;;;;;;;5.30;99.90;;;;;;5073869;28;19923;-74
2022/11/12 10:18:27;;;;;;;;;;;5.50;99.90;;;;;;5073504;28;19915;-74
2022/11/12 10:21:05;;;;;;;;;;;5.60;99.90;;;;;;5073977;28;19909;-74
2022/11/12 10:23:51;;;;;;;;;;;5.70;99.90;;;;;;5072171;28;19919;-74
2022/11/12 10:26:18;;;;;;;;;;;5.90;99.90;;;;;;5072052;28;20350;-74
2022/11/12 10:28:46;;;;;;;;;;;6.00;99.90;;;;;;5073600;28;19916;-74
2022/11/12 10:31:19;;;;;;;;;;;6.10;99.90;;;;;;5072797;28;19974;-74
2022/11/12 10:33:45;;;;;;;;;;;6.20;99.90;;;;;;5077677;28;19909;-74
2022/11/12 10:36:10;;;;;;;;;;;6.30;99.90;;;;;;5077289;28;20015;-74
2022/11/12 10:38:36;;;;;;;;;;;6.40;99.90;;;;;;5076036;28;19915;-74
2022/11/12 10:41:16;;;;;;;;;;;6.40;99.90;;;;;;5075984;28;19909;-76
2022/11/12 10:43:51;;;;;;;;;;;6.50;99.90;;;;;;5077466;28;19955;-74
2022/11/12 10:46:19;;;;;;;;;;;6.60;99.90;;;;;;5077398;28;20353;-74
2022/11/12 10:49:02;;;;;;;;;;;6.80;99.90;;;;;;5077621;28;19987;-74
2022/11/12 10:51:29;;;;;;;;;;;6.80;99.90;;;;;;5077048;28;19980;-74
2022/11/12 10:53:55;;;;;;;;;;;6.90;99.90;;;;;;5077380;28;20285;-74
2022/11/12 10:56:28;;;;;;;;;;;7.00;99.90;;;;;;5076810;28;19916;-75
2022/11/12 10:59:12;;;;;;;;;;;7.10;99.90;;;;;;5076938;28;19913;-75
2022/11/12 11:01:38;;;;;;;;;;;7.10;99.90;;;;;;5077174;28;19963;-75
2022/11/12 11:04:04;;;;;;;;;;;7.20;99.90;;;;;;5075608;28;19912;-75
2022/11/12 11:06:30;;;;;;;;;;;7.30;99.90;;;;;;5077421;28;20015;-70
2022/11/12 11:09:11;;;;;;;;;;;7.40;99.90;;;;;;5077043;28;19944;-70
2022/11/12 11:11:36;;;;;;;;;;;7.50;99.90;;;;;;5076661;28;19940;-70
2022/11/12 11:14:38;;;;;;;;;;;7.60;99.90;;;;;;5076541;28;19909;-71
2022/11/12 11:17:07;;;;;;;;;;;7.70;99.90;;;;;;5035093;28;20300;-70
2022/11/12 11:19:36;;;;;;;;;;;7.80;99.90;;;;;;5069506;28;19996;-70
2022/11/12 11:22:05;;;;;;;;;;;7.90;99.90;;;;;;5075163;28;19908;-70
2022/11/12 11:24:31;;;;;;;;;;;7.90;99.90;;;;;;5076781;28;19915;-70
2022/11/12 11:27:15;;;;;;;;;;;8.00;99.90;;;;;;5076446;28;20347;-70
2022/11/12 11:29:50;;;;;;;;;;;8.10;99.90;;;;;;5076872;28;20395;-75
2022/11/12 11:32:35;;;;;;;;;;;8.20;99.90;;;;;;5076424;28;20418;-74
2022/11/12 11:35:16;;;;;;;;;;;8.30;99.90;;;;;;5055110;28;19912;-74
2022/11/12 11:37:54;;;;;;;;;;;8.40;99.90;;;;;;5076874;28;19908;-74
2022/11/12 11:40:24;;;;;;;;;;;8.50;99.90;;;;;;5076835;28;19908;-75
2022/11/12 11:43:08;;;;;;;;;;;8.60;99.90;;;;;;5076138;28;20399;-75
2022/11/12 11:45:40;;;;;;;;;;;8.70;99.90;;;;;;5074871;28;19955;-75
2022/11/12 11:48:22;;;;;;;;;;;8.80;99.90;;;;;;5076082;28;20369;-75
2022/11/12 11:50:50;;;;;;;;;;;8.90;99.90;;;;;;5076425;28;19948;-75
2022/11/12 11:53:16;;;;;;;;;;;9.00;99.90;;;;;;5076053;28;20280;-75
2022/11/12 11:55:45;;;;;;;;;;;9.00;99.90;;;;;;5075828;28;19912;-74
2022/11/12 11:58:15;;;;;;;;;;;9.10;99.90;;;;;;5075960;28;19913;-75
2022/11/12 12:00:46;;;;;;;;;;;9.20;99.90;;;;;;5076203;28;19908;-75
2022/11/12 12:03:16;;;;;;;;;;;9.30;99.90;;;;;;5075892;28;19962;-75
2022/11/12 12:06:00;;;;;;;;;;;9.40;99.90;;;;;;5076049;28;19916;-75
2022/11/12 12:08:25;;;;;;;;;;;9.40;99.90;;;;;;5074482;28;20007;-75
2022/11/12 12:11:09;;;;;;;;;;;9.50;99.90;;;;;;5076255;28;20012;-74
2022/11/12 12:13:56;;;;;;;;;;;9.50;99.90;;;;;;5075939;28;19909;-75
2022/11/12 12:16:22;;;;;;;;;;;9.50;99.90;;;;;;5075413;28;19961;-74
2022/11/12 12:18:55;;;;;;;;;;;9.60;99.90;;;;;;5075531;28;19909;-74
2022/11/12 12:21:22;;;;;;;;;;;9.70;99.90;;;;;;5075544;28;19913;-74
2022/11/12 12:23:54;;;;;;;;;;;9.80;99.90;;;;;;5075563;28;19995;-75
2022/11/12 12:26:22;;;;;;;;;;;9.90;99.90;;;;;;5075698;28;19908;-75
2022/11/12 12:28:50;;;;;;;;;;;10.00;99.90;;;;;;5075679;28;19909;-75
2022/11/12 12:31:19;;;;;;;;;;;10.10;99.90;;;;;;5075274;28;19912;-75
2022/11/12 12:33:45;;;;;;;;;;;10.20;99.90;;;;;;5075321;28;20374;-75
2022/11/12 12:36:23;;;;;;;;;;;10.30;99.90;;;;;;5075328;28;19912;-75
2022/11/12 12:38:55;;;;;;;;;;;10.50;99.90;;;;;;5075184;28;19908;-74
2022/11/12 12:41:28;;;;;;;;;;;10.60;99.90;;;;;;5075412;28;20316;-74
2022/11/12 12:43:58;;;;;;;;;;;10.70;99.90;;;;;;5075094;28;19939;-75
2022/11/12 12:46:27;;;;;;;;;;;10.70;99.90;;;;;;5075098;28;19908;-75
2022/11/12 12:48:54;;;;;;;;;;;10.70;99.90;;;;;;5074973;28;19954;-75
2022/11/12 12:51:20;;;;;;;;;;;10.90;99.90;;;;;;5075590;28;19919;-75
2022/11/12 12:53:46;;;;;;;;;;;10.90;99.90;;;;;;5074890;28;20268;-75
2022/11/12 12:56:11;;;;;;;;;;;11.00;99.90;;;;;;5073935;28;19931;-74
2022/11/12 12:58:40;;;;;;;;;;;11.00;99.90;;;;;;5075272;28;19913;-74
2022/11/12 13:01:20;;;;;;;;;;;11.10;99.90;;;;;;5074994;28;19962;-75
2022/11/12 13:03:50;;;;;;;;;;;11.20;99.90;;;;;;5074947;28;20012;-74
2022/11/12 13:06:23;;;;;;;;;;;11.20;99.90;;;;;;5074593;28;19962;-74
2022/11/12 13:08:49;;;;;;;;;;;11.30;99.90;;;;;;5074578;28;19977;-75
2022/11/12 13:12:20;;;;;;;;;;;11.30;99.90;;;;;;5075416;28;20353;-74
2022/11/12 13:14:39;;;;;;;;;;;11.30;99.90;;;;;;5074235;28;19920;-74
2022/11/12 13:17:07;;;;;;;;;;;11.30;99.90;;;;;;5074354;28;19935;-74
2022/11/12 13:19:34;;;;;;;;;;;11.30;99.90;;;;;;5073108;28;19915;-74
2022/11/12 13:22:18;;;;;;;;;;;11.30;99.90;;;;;;5074923;28;19912;-75
2022/11/12 13:25:02;;;;;;;;;;;11.30;99.90;;;;;;5074864;28;19958;-74
2022/11/12 13:27:43;;;;;;;;;;;11.20;99.90;;;;;;5074536;28;19914;-75
2022/11/12 13:30:12;;;;;;;;;;;11.10;99.90;;;;;;5074444;28;19916;-74
2022/11/12 13:32:40;;;;;;;;;;;11.10;99.90;;;;;;5074446;28;19908;-74
2022/11/12 13:35:21;;;;;;;;;;;11.00;99.90;;;;;;5073972;28;19912;-74
2022/11/12 13:37:53;;;;;;;;;;;11.00;99.90;;;;;;5072757;28;19909;-74
2022/11/12 13:40:21;;;;;;;;;;;10.90;99.90;;;;;;5074592;28;19908;-73
2022/11/12 13:42:47;;;;;;;;;;;10.90;99.90;;;;;;5074241;28;19909;-74
2022/11/12 13:45:14;;;;;;;;;;;10.90;99.90;;;;;;5072619;28;19919;-74
2022/11/12 13:47:39;;;;;;;;;;;10.90;99.90;;;;;;5073245;28;20315;-74
2022/11/12 13:50:12;;;;;;;;;;;10.90;99.90;;;;;;5073612;28;19915;-74
2022/11/12 13:52:38;;;;;;;;;;;10.80;99.90;;;;;;5073597;28;19961;-74
2022/11/12 13:55:05;;;;;;;;;;;10.80;99.90;;;;;;5072739;28;20368;-74
2022/11/12 13:57:31;;;;;;;;;;;10.80;99.90;;;;;;5073058;28;20338;-74
2022/11/12 14:00:26;;;;;;;;;;;10.70;99.90;;;;;;5073730;28;19909;-75
2022/11/12 14:03:02;;;;;;;;;;;10.70;99.90;;;;;;5064592;28;20334;-75
2022/11/12 14:05:29;;;;;;;;;;;10.70;99.90;;;;;;5073949;28;19916;-74
2022/11/12 14:08:13;;;;;;;;;;;10.70;99.90;;;;;;5072075;28;20011;-75
2022/11/12 14:10:42;;;;;;;;;;;10.60;99.90;;;;;;5073593;28;20288;-74
2022/11/12 14:13:43;;;;;;;;;;;10.60;99.90;;;;;;5073586;28;20441;-75
2022/11/12 14:16:11;;;;;;;;;;;10.50;99.90;;;;;;5031522;28;19936;-75
2022/11/12 14:18:57;;;;;;;;;;;10.50;99.90;;;;;;5065276;28;20310;-75
2022/11/12 14:21:22;;;;;;;;;;;10.50;99.90;;;;;;5073782;28;19999;-75
2022/11/12 14:23:48;;;;;;;;;;;10.40;99.90;;;;;;5073528;28;19944;-74
2022/11/12 14:26:32;;;;;;;;;;;10.30;99.90;;;;;;5073935;28;19966;-74
2022/11/12 14:28:58;;;;;;;;;;;10.30;99.90;;;;;;5073802;28;20345;-74
2022/11/12 14:31:24;;;;;;;;;;;10.20;99.90;;;;;;5073740;28;19917;-75
2022/11/12 14:33:49;;;;;;;;;;;10.20;99.90;;;;;;5073672;28;19952;-74
2022/11/12 14:36:17;;;;;;;;;;;10.20;99.90;;;;;;5073512;28;19966;-73
2022/11/12 14:38:45;;;;;;;;;;;10.20;99.90;;;;;;5072157;28;19909;-74
2022/11/12 14:41:22;;;;;;;;;;;10.10;99.90;;;;;;5072088;28;19912;-74
2022/11/12 14:43:52;;;;;;;;;;;10.10;99.90;;;;;;5072517;28;19909;-74
2022/11/12 14:46:23;;;;;;;;;;;10.00;99.90;;;;;;5070631;28;20376;-74
2022/11/12 14:48:55;;;;;;;;;;;10.00;99.90;;;;;;5071902;28;20280;-75
2022/11/12 14:51:21;;;;;;;;;;;9.90;99.90;;;;;;5073748;28;19923;-75
2022/11/12 14:53:57;;;;;;;;;;;9.80;99.90;;;;;;5072158;28;19909;-75
2022/11/12 14:56:28;;;;;;;;;;;9.70;99.90;;;;;;5071969;28;19912;-74
2022/11/12 14:58:54;;;;;;;;;;;9.60;99.90;;;;;;5073076;28;19908;-74
2022/11/12 15:01:23;;;;;;;;;;;9.50;99.90;;;;;;5073385;28;19912;-75